sensor_id;sensor_type;location;lat;lon;timestamp;pressure;altitude;pressure_sealevel;temperature;humidity
11172;BME280;5642;50.830;12.082;2023-04-16T00:01:19;99217.69;;;12.59;55.17
11172;BME280;5642;50.830;12.082;2023-04-16T00:03:47;99211.53;;;12.60;55.36
11172;BME280;5642;50.830;12.082;2023-04-16T00:06:15;99217.63;;;12.61;55.38
11172;BME280;5642;50.830;12.082;2023-04-16T00:08:41;99216.13;;;12.55;54.98
11172;BME280;5642;50.830;12.082;2023-04-16T00:11:09;99220.59;;;12.53;55.35
11172;BME280;5642;50.830;12.082;2023-04-16T00:13:35;99222.50;;;12.49;55.56
11172;BME280;5642;50.830;12.082;2023-04-16T00:16:02;99189.13;;;12.31;55.50
11172;BME280;5642;50.830;12.082;2023-04-16T00:18:28;99213.94;;;12.44;55.60
11172;BME280;5642;50.830;12.082;2023-04-16T00:20:54;99204.44;;;12.42;55.51
11172;BME280;5642;50.830;12.082;2023-04-16T00:23:20;99209.81;;;12.39;55.33
11172;BME280;5642;50.830;12.082;2023-04-16T00:25:48;99209.84;;;12.37;55.64
11172;BME280;5642;50.830;12.082;2023-04-16T00:28:14;99202.06;;;12.36;55.39
11172;BME280;5642;50.830;12.082;2023-04-16T00:30:40;99210.00;;;12.34;55.59
11172;BME280;5642;50.830;12.082;2023-04-16T00:33:08;99212.69;;;12.33;55.52
11172;BME280;5642;50.830;12.082;2023-04-16T00:35:34;99217.09;;;12.32;55.61
11172;BME280;5642;50.830;12.082;2023-04-16T00:38:01;99216.16;;;12.33;55.33
11172;BME280;5642;50.830;12.082;2023-04-16T00:40:28;99221.44;;;12.33;55.28
11172;BME280;5642;50.830;12.082;2023-04-16T00:42:54;99209.41;;;12.28;55.40
11172;BME280;5642;50.830;12.082;2023-04-16T00:45:20;99215.56;;;12.27;55.04
11172;BME280;5642;50.830;12.082;2023-04-16T00:47:46;99222.66;;;12.25;55.28
11172;BME280;5642;50.830;12.082;2023-04-16T00:50:13;99218.47;;;12.21;55.57
11172;BME280;5642;50.830;12.082;2023-04-16T00:52:40;99213.53;;;12.13;55.46
11172;BME280;5642;50.830;12.082;2023-04-16T00:55:08;99224.63;;;12.20;55.38
11172;BME280;5642;50.830;12.082;2023-04-16T00:57:38;99229.88;;;12.20;55.62
11172;BME280;5642;50.830;12.082;2023-04-16T01:00:05;99225.34;;;12.23;55.51
11172;BME280;5642;50.830;12.082;2023-04-16T01:02:33;99233.97;;;12.27;55.55
11172;BME280;5642;50.830;12.082;2023-04-16T01:05:01;99229.50;;;12.29;55.59
11172;BME280;5642;50.830;12.082;2023-04-16T01:07:27;99226.78;;;12.30;55.37
11172;BME280;5642;50.830;12.082;2023-04-16T01:09:53;99222.44;;;12.29;55.42
11172;BME280;5642;50.830;12.082;2023-04-16T01:12:19;99233.50;;;12.37;55.26
11172;BME280;5642;50.830;12.082;2023-04-16T01:14:45;99229.91;;;12.40;55.14
11172;BME280;5642;50.830;12.082;2023-04-16T01:17:11;99218.84;;;12.32;55.21
11172;BME280;5642;50.830;12.082;2023-04-16T01:19:37;99229.03;;;12.39;55.15
11172;BME280;5642;50.830;12.082;2023-04-16T01:22:04;99243.69;;;12.45;55.06
11172;BME280;5642;50.830;12.082;2023-04-16T01:24:31;99225.72;;;12.36;55.14
11172;BME280;5642;50.830;12.082;2023-04-16T01:26:58;99237.72;;;12.41;55.16
11172;BME280;5642;50.830;12.082;2023-04-16T01:29:25;99237.72;;;12.41;55.32
11172;BME280;5642;50.830;12.082;2023-04-16T01:31:52;99235.03;;;12.43;55.15
11172;BME280;5642;50.830;12.082;2023-04-16T01:34:19;99229.63;;;12.46;55.24
11172;BME280;5642;50.830;12.082;2023-04-16T01:36:46;99234.09;;;12.44;55.15
11172;BME280;5642;50.830;12.082;2023-04-16T01:39:11;99237.19;;;12.53;55.13
11172;BME280;5642;50.830;12.082;2023-04-16T01:41:40;99240.56;;;12.57;55.34
11172;BME280;5642;50.830;12.082;2023-04-16T01:44:07;99244.03;;;12.57;55.38
11172;BME280;5642;50.830;12.082;2023-04-16T01:46:34;99243.78;;;12.64;54.99
11172;BME280;5642;50.830;12.082;2023-04-16T01:49:01;99235.06;;;12.63;55.09
11172;BME280;5642;50.830;12.082;2023-04-16T01:51:27;99218.50;;;12.61;55.28
11172;BME280;5642;50.830;12.082;2023-04-16T01:53:54;99237.25;;;12.72;55.26
11172;BME280;5642;50.830;12.082;2023-04-16T01:56:20;99233.66;;;12.75;54.67
11172;BME280;5642;50.830;12.082;2023-04-16T01:58:46;99239.72;;;12.77;54.86
11172;BME280;5642;50.830;12.082;2023-04-16T02:01:13;99240.69;;;12.74;54.87
11172;BME280;5642;50.830;12.082;2023-04-16T02:03:39;99249.53;;;12.72;55.05
11172;BME280;5642;50.830;12.082;2023-04-16T02:06:06;99250.63;;;12.68;55.14
11172;BME280;5642;50.830;12.082;2023-04-16T02:08:34;99256.13;;;12.62;55.47
11172;BME280;5642;50.830;12.082;2023-04-16T02:11:01;99253.03;;;12.52;55.38
11172;BME280;5642;50.830;12.082;2023-04-16T02:13:28;99247.22;;;12.44;55.45
11172;BME280;5642;50.830;12.082;2023-04-16T02:15:54;99254.88;;;12.50;55.40
11172;BME280;5642;50.830;12.082;2023-04-16T02:18:20;99235.22;;;12.38;55.30
11172;BME280;5642;50.830;12.082;2023-04-16T02:20:46;99258.22;;;12.53;55.30
11172;BME280;5642;50.830;12.082;2023-04-16T02:23:14;99258.16;;;12.55;55.63
11172;BME280;5642;50.830;12.082;2023-04-16T02:25:42;99257.97;;;12.60;55.17
11172;BME280;5642;50.830;12.082;2023-04-16T02:28:12;99256.94;;;12.64;55.53
11172;BME280;5642;50.830;12.082;2023-04-16T02:30:39;99256.84;;;12.65;55.34
11172;BME280;5642;50.830;12.082;2023-04-16T02:33:08;99260.31;;;12.66;55.24
11172;BME280;5642;50.830;12.082;2023-04-16T02:35:35;99261.06;;;12.69;54.99
11172;BME280;5642;50.830;12.082;2023-04-16T02:38:03;99258.56;;;12.66;55.13
11172;BME280;5642;50.830;12.082;2023-04-16T02:40:29;99261.13;;;12.68;55.39
11172;BME280;5642;50.830;12.082;2023-04-16T02:42:56;99272.44;;;12.70;55.14
11172;BME280;5642;50.830;12.082;2023-04-16T02:45:23;99267.13;;;12.71;55.30
11172;BME280;5642;50.830;12.082;2023-04-16T02:47:50;99272.38;;;12.71;55.39
11172;BME280;5642;50.830;12.082;2023-04-16T02:50:17;99272.53;;;12.67;55.55
11172;BME280;5642;50.830;12.082;2023-04-16T02:52:43;99278.72;;;12.66;55.46
11172;BME280;5642;50.830;12.082;2023-04-16T02:55:10;99284.06;;;12.64;55.52
11172;BME280;5642;50.830;12.082;2023-04-16T02:57:37;99275.97;;;12.69;55.44
11172;BME280;5642;50.830;12.082;2023-04-16T03:00:03;99278.41;;;12.73;55.04
11172;BME280;5642;50.830;12.082;2023-04-16T03:02:29;99280.91;;;12.76;55.17
11172;BME280;5642;50.830;12.082;2023-04-16T03:04:57;99279.09;;;12.78;54.88
11172;BME280;5642;50.830;12.082;2023-04-16T03:07:24;99280.00;;;12.77;55.05
11172;BME280;5642;50.830;12.082;2023-04-16T03:09:51;99288.66;;;12.79;55.09
11172;BME280;5642;50.830;12.082;2023-04-16T03:12:17;99276.69;;;12.72;55.30
11172;BME280;5642;50.830;12.082;2023-04-16T03:14:44;99271.53;;;12.71;55.12
11172;BME280;5642;50.830;12.082;2023-04-16T03:17:10;99283.66;;;12.73;55.34
11172;BME280;5642;50.830;12.082;2023-04-16T03:19:36;99287.13;;;12.74;55.44
11172;BME280;5642;50.830;12.082;2023-04-16T03:22:04;99281.88;;;12.74;55.29
11172;BME280;5642;50.830;12.082;2023-04-16T03:24:31;99288.16;;;12.71;55.37
11172;BME280;5642;50.830;12.082;2023-04-16T03:26:57;99286.69;;;12.64;55.27
11172;BME280;5642;50.830;12.082;2023-04-16T03:29:24;99290.22;;;12.63;55.62
11172;BME280;5642;50.830;12.082;2023-04-16T03:31:51;99297.19;;;12.64;55.63
11172;BME280;5642;50.830;12.082;2023-04-16T03:34:18;99297.91;;;12.68;55.41
11172;BME280;5642;50.830;12.082;2023-04-16T03:36:45;99304.13;;;12.65;55.45
11172;BME280;5642;50.830;12.082;2023-04-16T03:39:11;99292.25;;;12.57;55.43
11172;BME280;5642;50.830;12.082;2023-04-16T03:41:37;99311.09;;;12.66;55.76
11172;BME280;5642;50.830;12.082;2023-04-16T03:44:05;99308.44;;;12.68;55.55
11172;BME280;5642;50.830;12.082;2023-04-16T03:46:32;99308.44;;;12.68;55.72
11172;BME280;5642;50.830;12.082;2023-04-16T03:48:58;99311.09;;;12.66;55.52
11172;BME280;5642;50.830;12.082;2023-04-16T03:51:25;99318.03;;;12.69;55.60
11172;BME280;5642;50.830;12.082;2023-04-16T03:53:51;99317.16;;;12.68;55.19
11172;BME280;5642;50.830;12.082;2023-04-16T03:56:17;99319.00;;;12.66;55.44
11172;BME280;5642;50.830;12.082;2023-04-16T03:58:43;99320.06;;;12.62;55.34
11172;BME280;5642;50.830;12.082;2023-04-16T04:01:09;99329.66;;;12.63;55.57
11172;BME280;5642;50.830;12.082;2023-04-16T04:03:35;99336.63;;;12.64;55.42
11172;BME280;5642;50.830;12.082;2023-04-16T04:06:06;99332.19;;;12.65;55.43
11172;BME280;5642;50.830;12.082;2023-04-16T04:08:33;99335.75;;;12.64;55.62
11172;BME280;5642;50.830;12.082;2023-04-16T04:10:59;99339.09;;;12.67;55.79
11172;BME280;5642;50.830;12.082;2023-04-16T04:13:25;99334.97;;;12.62;55.43
11172;BME280;5642;50.830;12.082;2023-04-16T04:15:51;99338.38;;;12.64;55.35
11172;BME280;5642;50.830;12.082;2023-04-16T04:18:17;99342.69;;;12.65;55.70
11172;BME280;5642;50.830;12.082;2023-04-16T04:20:44;99347.00;;;12.67;55.62
11172;BME280;5642;50.830;12.082;2023-04-16T04:23:10;99353.03;;;12.69;55.39
11172;BME280;5642;50.830;12.082;2023-04-16T04:25:36;99352.13;;;12.70;55.33
11172;BME280;5642;50.830;12.082;2023-04-16T04:28:02;99350.34;;;12.71;55.53
11172;BME280;5642;50.830;12.082;2023-04-16T04:30:28;99350.53;;;12.66;55.49
11172;BME280;5642;50.830;12.082;2023-04-16T04:32:54;99356.38;;;12.73;55.48
11172;BME280;5642;50.830;12.082;2023-04-16T04:35:21;99359.00;;;12.73;55.56
11172;BME280;5642;50.830;12.082;2023-04-16T04:37:47;99359.16;;;12.70;55.58
11172;BME280;5642;50.830;12.082;2023-04-16T04:40:13;99362.69;;;12.69;55.74
11172;BME280;5642;50.830;12.082;2023-04-16T04:42:40;99366.25;;;12.68;55.93
11172;BME280;5642;50.830;12.082;2023-04-16T04:45:06;99360.00;;;12.70;55.92
11172;BME280;5642;50.830;12.082;2023-04-16T04:47:33;99372.09;;;12.74;55.93
11172;BME280;5642;50.830;12.082;2023-04-16T04:49:59;99376.34;;;12.78;55.59
11172;BME280;5642;50.830;12.082;2023-04-16T04:52:25;99376.25;;;12.80;55.64
11172;BME280;5642;50.830;12.082;2023-04-16T04:54:51;99386.50;;;12.86;55.99
11172;BME280;5642;50.830;12.082;2023-04-16T04:57:17;99382.03;;;12.88;55.38
11172;BME280;5642;50.830;12.082;2023-04-16T04:59:43;99375.88;;;12.89;55.78
11172;BME280;5642;50.830;12.082;2023-04-16T05:02:09;99384.63;;;12.89;55.85
11172;BME280;5642;50.830;12.082;2023-04-16T05:04:36;99386.44;;;12.87;55.91
11172;BME280;5642;50.830;12.082;2023-04-16T05:07:03;99386.38;;;12.89;55.75
11172;BME280;5642;50.830;12.082;2023-04-16T05:09:29;99391.59;;;12.90;55.87
11172;BME280;5642;50.830;12.082;2023-04-16T05:11:55;99393.97;;;12.97;55.78
11172;BME280;5642;50.830;12.082;2023-04-16T05:14:22;99391.28;;;12.98;55.88
11172;BME280;5642;50.830;12.082;2023-04-16T05:16:48;99375.56;;;12.97;55.61
11172;BME280;5642;50.830;12.082;2023-04-16T05:19:15;99388.44;;;13.03;55.60
11172;BME280;5642;50.830;12.082;2023-04-16T05:21:41;99389.44;;;13.00;55.63
11172;BME280;5642;50.830;12.082;2023-04-16T05:24:07;99394.06;;;12.93;55.84
11172;BME280;5642;50.830;12.082;2023-04-16T05:26:34;99387.31;;;12.88;55.78
11172;BME280;5642;50.830;12.082;2023-04-16T05:29:00;99401.09;;;12.93;55.95
11172;BME280;5642;50.830;12.082;2023-04-16T05:31:27;99401.91;;;12.95;56.01
11172;BME280;5642;50.830;12.082;2023-04-16T05:33:54;99413.16;;;12.99;55.98
11172;BME280;5642;50.830;12.082;2023-04-16T05:36:20;99413.13;;;13.00;55.99
11172;BME280;5642;50.830;12.082;2023-04-16T05:38:47;99411.31;;;13.01;55.67
11172;BME280;5642;50.830;12.082;2023-04-16T05:41:13;99408.69;;;13.01;55.88
11172;BME280;5642;50.830;12.082;2023-04-16T05:43:40;99414.69;;;13.04;55.78
11172;BME280;5642;50.830;12.082;2023-04-16T05:46:06;99421.59;;;13.07;56.11
11172;BME280;5642;50.830;12.082;2023-04-16T05:48:32;99416.34;;;13.07;55.85
11172;BME280;5642;50.830;12.082;2023-04-16T05:50:59;99432.78;;;13.12;55.90
11172;BME280;5642;50.830;12.082;2023-04-16T05:53:27;99427.41;;;13.15;56.08
11172;BME280;5642;50.830;12.082;2023-04-16T05:55:53;99417.84;;;13.14;55.99
11172;BME280;5642;50.830;12.082;2023-04-16T05:58:19;99431.31;;;13.26;55.84
11172;BME280;5642;50.830;12.082;2023-04-16T06:00:45;99427.56;;;13.32;55.97
11172;BME280;5642;50.830;12.082;2023-04-16T06:03:11;99431.09;;;13.31;55.90
11172;BME280;5642;50.830;12.082;2023-04-16T06:05:37;99435.56;;;13.29;56.07
11172;BME280;5642;50.830;12.082;2023-04-16T06:08:03;99433.63;;;13.34;56.11
11172;BME280;5642;50.830;12.082;2023-04-16T06:10:29;99431.00;;;13.34;56.05
11172;BME280;5642;50.830;12.082;2023-04-16T06:12:55;99434.00;;;13.45;55.87
11172;BME280;5642;50.830;12.082;2023-04-16T06:15:21;99449.41;;;13.54;55.79
11172;BME280;5642;50.830;12.082;2023-04-16T06:17:48;99442.97;;;13.61;55.93
11172;BME280;5642;50.830;12.082;2023-04-16T06:20:15;99449.78;;;13.65;55.74
11172;BME280;5642;50.830;12.082;2023-04-16T06:22:42;99451.25;;;13.72;55.64
11172;BME280;5642;50.830;12.082;2023-04-16T06:25:08;99450.91;;;13.80;55.57
11172;BME280;5642;50.830;12.082;2023-04-16T06:27:35;99451.59;;;13.85;55.69
11172;BME280;5642;50.830;12.082;2023-04-16T06:30:02;99449.72;;;13.87;55.45
11172;BME280;5642;50.830;12.082;2023-04-16T06:32:30;99442.81;;;13.85;55.44
11172;BME280;5642;50.830;12.082;2023-04-16T06:35:03;99445.53;;;13.83;55.68
11172;BME280;5642;50.830;12.082;2023-04-16T06:37:32;99455.56;;;13.94;55.67
11172;BME280;5642;50.830;12.082;2023-04-16T06:39:58;99454.50;;;13.98;55.37
11172;BME280;5642;50.830;12.082;2023-04-16T06:42:24;99463.97;;;14.02;55.60
11172;BME280;5642;50.830;12.082;2023-04-16T06:44:50;99454.09;;;14.07;55.47
11172;BME280;5642;50.830;12.082;2023-04-16T06:47:16;99470.34;;;14.17;55.47
11172;BME280;5642;50.830;12.082;2023-04-16T06:49:42;99462.31;;;14.20;55.27
11172;BME280;5642;50.830;12.082;2023-04-16T06:52:08;99453.50;;;14.21;55.42
11172;BME280;5642;50.830;12.082;2023-04-16T06:54:35;99466.28;;;14.28;55.29
11172;BME280;5642;50.830;12.082;2023-04-16T06:57:17;99475.84;;;14.31;55.34
11172;BME280;5642;50.830;12.082;2023-04-16T06:59:43;99473.13;;;14.32;55.15
11172;BME280;5642;50.830;12.082;2023-04-16T07:02:09;99474.91;;;14.32;55.26
11172;BME280;5642;50.830;12.082;2023-04-16T07:04:37;99474.91;;;14.32;55.37
11172;BME280;5642;50.830;12.082;2023-04-16T07:07:03;99467.81;;;14.34;55.40
11172;BME280;5642;50.830;12.082;2023-04-16T07:09:29;99478.09;;;14.40;55.32
11172;BME280;5642;50.830;12.082;2023-04-16T07:11:57;99477.00;;;14.44;55.37
11172;BME280;5642;50.830;12.082;2023-04-16T07:14:24;99475.88;;;14.49;55.42
11172;BME280;5642;50.830;12.082;2023-04-16T07:16:50;99479.88;;;14.58;55.23
11172;BME280;5642;50.830;12.082;2023-04-16T07:19:17;99480.38;;;14.66;55.20
11172;BME280;5642;50.830;12.082;2023-04-16T07:21:43;99475.53;;;14.76;55.14
11172;BME280;5642;50.830;12.082;2023-04-16T07:24:10;99481.19;;;14.85;55.09
11172;BME280;5642;50.830;12.082;2023-04-16T07:26:39;99479.13;;;14.92;54.93
11172;BME280;5642;50.830;12.082;2023-04-16T07:29:05;99487.44;;;15.02;54.87
11172;BME280;5642;50.830;12.082;2023-04-16T07:31:31;99494.22;;;15.07;54.77
11172;BME280;5642;50.830;12.082;2023-04-16T07:33:58;99487.09;;;15.09;54.87
11172;BME280;5642;50.830;12.082;2023-04-16T07:36:24;99491.06;;;15.18;54.87
11172;BME280;5642;50.830;12.082;2023-04-16T07:38:52;99497.75;;;15.25;54.82
11172;BME280;5642;50.830;12.082;2023-04-16T07:41:18;99501.88;;;15.31;54.67
11172;BME280;5642;50.830;12.082;2023-04-16T07:43:44;99502.59;;;15.34;54.36
11172;BME280;5642;50.830;12.082;2023-04-16T07:46:13;99505.78;;;15.41;54.62
11172;BME280;5642;50.830;12.082;2023-04-16T07:48:39;99510.50;;;15.51;54.69
11172;BME280;5642;50.830;12.082;2023-04-16T07:51:05;99507.81;;;15.53;54.46
11172;BME280;5642;50.830;12.082;2023-04-16T07:53:31;99511.88;;;15.60;54.57
11172;BME280;5642;50.830;12.082;2023-04-16T07:55:57;99490.13;;;15.55;54.46
11172;BME280;5642;50.830;12.082;2023-04-16T07:58:23;99516.06;;;15.64;54.55
11172;BME280;5642;50.830;12.082;2023-04-16T08:00:53;99521.25;;;15.65;54.58
11172;BME280;5642;50.830;12.082;2023-04-16T08:03:19;99517.69;;;15.66;54.60
11172;BME280;5642;50.830;12.082;2023-04-16T08:05:46;99524.63;;;15.69;54.55
11172;BME280;5642;50.830;12.082;2023-04-16T08:08:12;99519.22;;;15.71;54.53
11172;BME280;5642;50.830;12.082;2023-04-16T08:10:39;99518.22;;;15.73;54.38
11172;BME280;5642;50.830;12.082;2023-04-16T08:13:10;99526.69;;;15.80;54.30
11172;BME280;5642;50.830;12.082;2023-04-16T08:15:52;99538.59;;;15.88;54.32
11172;BME280;5642;50.830;12.082;2023-04-16T08:18:18;99533.22;;;15.90;54.41
11172;BME280;5642;50.830;12.082;2023-04-16T08:20:44;99520.78;;;15.92;54.37
11172;BME280;5642;50.830;12.082;2023-04-16T08:23:10;99540.59;;;16.00;54.17
11172;BME280;5642;50.830;12.082;2023-04-16T08:25:36;99540.38;;;16.05;54.21
11172;BME280;5642;50.830;12.082;2023-04-16T08:28:03;99546.28;;;16.10;54.37
11172;BME280;5642;50.830;12.082;2023-04-16T08:30:29;99546.53;;;16.21;54.24
11172;BME280;5642;50.830;12.082;2023-04-16T08:32:55;99548.88;;;16.27;54.18
11172;BME280;5642;50.830;12.082;2023-04-16T08:35:22;99544.97;;;16.34;53.61
11172;BME280;5642;50.830;12.082;2023-04-16T08:37:48;99554.72;;;16.50;53.81
11172;BME280;5642;50.830;12.082;2023-04-16T08:40:14;99527.16;;;16.38;53.86
11172;BME280;5642;50.830;12.082;2023-04-16T08:42:48;99559.75;;;16.71;53.81
11172;BME280;5642;50.830;12.082;2023-04-16T08:45:17;99562.78;;;16.81;53.80
11172;BME280;5642;50.830;12.082;2023-04-16T08:47:49;99561.06;;;16.96;53.67
11172;BME280;5642;50.830;12.082;2023-04-16T08:50:19;99563.03;;;17.08;53.31
11172;BME280;5642;50.830;12.082;2023-04-16T08:53:04;99570.56;;;17.15;53.23
11172;BME280;5642;50.830;12.082;2023-04-16T08:55:38;99566.53;;;17.24;53.35
11172;BME280;5642;50.830;12.082;2023-04-16T08:58:22;99566.78;;;17.35;53.12
11172;BME280;5642;50.830;12.082;2023-04-16T09:00:50;99558.31;;;17.44;53.04
11172;BME280;5642;50.830;12.082;2023-04-16T09:03:16;99562.75;;;17.59;53.13
11172;BME280;5642;50.830;12.082;2023-04-16T09:05:46;99562.56;;;17.63;53.01
11172;BME280;5642;50.830;12.082;2023-04-16T09:08:13;99568.03;;;17.75;53.09
11172;BME280;5642;50.830;12.082;2023-04-16T09:10:44;99563.47;;;17.77;53.09
11172;BME280;5642;50.830;12.082;2023-04-16T09:13:11;99570.25;;;17.83;52.94
11172;BME280;5642;50.830;12.082;2023-04-16T09:15:41;99573.59;;;18.00;52.84
11172;BME280;5642;50.830;12.082;2023-04-16T09:18:11;99581.50;;;18.16;53.02
11172;BME280;5642;50.830;12.082;2023-04-16T09:20:38;99580.66;;;18.30;52.66
11172;BME280;5642;50.830;12.082;2023-04-16T09:23:04;99601.13;;;18.42;52.45
11172;BME280;5642;50.830;12.082;2023-04-16T09:25:34;99579.91;;;18.42;52.44
11172;BME280;5642;50.830;12.082;2023-04-16T09:28:01;99593.56;;;18.50;52.45
11172;BME280;5642;50.830;12.082;2023-04-16T09:30:28;99591.69;;;18.52;52.54
11172;BME280;5642;50.830;12.082;2023-04-16T09:33:21;99595.94;;;18.55;52.23
11172;BME280;5642;50.830;12.082;2023-04-16T09:35:51;99597.94;;;18.51;52.29
11172;BME280;5642;50.830;12.082;2023-04-16T09:38:19;99596.97;;;18.52;52.35
11172;BME280;5642;50.830;12.082;2023-04-16T09:40:45;99600.41;;;18.54;52.29
11172;BME280;5642;50.830;12.082;2023-04-16T09:43:16;99605.78;;;18.53;52.13
11172;BME280;5642;50.830;12.082;2023-04-16T09:45:49;99601.34;;;18.53;52.19
11172;BME280;5642;50.830;12.082;2023-04-16T09:48:30;99597.75;;;18.54;52.04
11172;BME280;5642;50.830;12.082;2023-04-16T09:50:59;99583.25;;;18.46;52.18
11172;BME280;5642;50.830;12.082;2023-04-16T09:53:30;99601.34;;;18.53;52.06
11172;BME280;5642;50.830;12.082;2023-04-16T09:56:04;99608.72;;;18.48;52.05
11172;BME280;5642;50.830;12.082;2023-04-16T09:58:31;99616.47;;;18.37;52.30
11172;BME280;5642;50.830;12.082;2023-04-16T10:01:01;99596.47;;;18.17;52.44
11172;BME280;5642;50.830;12.082;2023-04-16T10:03:30;99619.72;;;18.12;52.39
11172;BME280;5642;50.830;12.082;2023-04-16T10:06:03;99616.69;;;18.04;52.42
11172;BME280;5642;50.830;12.082;2023-04-16T10:08:32;99614.56;;;17.95;52.38
11172;BME280;5642;50.830;12.082;2023-04-16T10:10:58;99624.31;;;17.94;52.32
11172;BME280;5642;50.830;12.082;2023-04-16T10:13:24;99604.00;;;17.79;52.21
11172;BME280;5642;50.830;12.082;2023-04-16T10:15:55;99629.13;;;17.88;52.24
11172;BME280;5642;50.830;12.082;2023-04-16T10:18:22;99606.94;;;17.75;52.24
11172;BME280;5642;50.830;12.082;2023-04-16T10:20:52;99630.22;;;17.84;51.97
11172;BME280;5642;50.830;12.082;2023-04-16T10:23:20;99639.81;;;17.86;51.88
11172;BME280;5642;50.830;12.082;2023-04-16T10:25:47;99645.03;;;17.88;51.99
11172;BME280;5642;50.830;12.082;2023-04-16T10:28:15;99637.94;;;17.88;51.86
11172;BME280;5642;50.830;12.082;2023-04-16T10:30:47;99640.66;;;17.87;51.77
11172;BME280;5642;50.830;12.082;2023-04-16T10:33:22;99641.19;;;17.78;51.84
11172;BME280;5642;50.830;12.082;2023-04-16T10:35:49;99643.91;;;17.76;51.91
11172;BME280;5642;50.830;12.082;2023-04-16T10:38:26;99625.44;;;17.59;51.83
11172;BME280;5642;50.830;12.082;2023-04-16T10:41:02;99645.53;;;17.63;51.90
11172;BME280;5642;50.830;12.082;2023-04-16T10:43:37;99654.94;;;17.53;52.11
11172;BME280;5642;50.830;12.082;2023-04-16T10:46:21;99651.09;;;17.43;52.10
11172;BME280;5642;50.830;12.082;2023-04-16T10:48:55;99650.75;;;17.33;52.24
11172;BME280;5642;50.830;12.082;2023-04-16T10:51:29;99647.75;;;17.23;52.17
11172;BME280;5642;50.830;12.082;2023-04-16T10:54:01;99645.09;;;17.08;52.38
11172;BME280;5642;50.830;12.082;2023-04-16T10:56:30;99652.75;;;16.97;52.42
11172;BME280;5642;50.830;12.082;2023-04-16T10:58:56;99642.13;;;16.81;52.25
11172;BME280;5642;50.830;12.082;2023-04-16T11:01:43;99657.47;;;16.74;52.29
11172;BME280;5642;50.830;12.082;2023-04-16T11:07:05;99658.50;;;16.55;52.36
11172;BME280;5642;50.830;12.082;2023-04-16T11:10:05;99665.56;;;16.37;52.65
11172;BME280;5642;50.830;12.082;2023-04-16T11:12:39;99667.75;;;16.29;52.64
11172;BME280;5642;50.830;12.082;2023-04-16T11:15:21;99662.16;;;16.18;52.70
11172;BME280;5642;50.830;12.082;2023-04-16T11:17:50;99658.03;;;16.12;52.69
11172;BME280;5642;50.830;12.082;2023-04-16T11:20:22;99664.56;;;16.05;52.78
11172;BME280;5642;50.830;12.082;2023-04-16T11:22:50;99674.97;;;16.08;52.90
11172;BME280;5642;50.830;12.082;2023-04-16T11:25:24;99668.06;;;16.05;52.78
11172;BME280;5642;50.830;12.082;2023-04-16T11:27:51;99668.44;;;15.98;52.82
11172;BME280;5642;50.830;12.082;2023-04-16T11:30:26;99673.25;;;15.90;52.73
11172;BME280;5642;50.830;12.082;2023-04-16T11:32:53;99674.16;;;15.89;52.81
11172;BME280;5642;50.830;12.082;2023-04-16T11:35:21;99681.22;;;15.88;52.81
11172;BME280;5642;50.830;12.082;2023-04-16T11:37:55;99677.66;;;15.89;52.66
11172;BME280;5642;50.830;12.082;2023-04-16T11:40:21;99689.22;;;15.87;52.62
11172;BME280;5642;50.830;12.082;2023-04-16T11:42:48;99688.44;;;15.85;52.69
11172;BME280;5642;50.830;12.082;2023-04-16T11:45:14;99686.81;;;15.82;52.78
11172;BME280;5642;50.830;12.082;2023-04-16T11:47:47;99692.03;;;15.84;52.71
11172;BME280;5642;50.830;12.082;2023-04-16T11:50:24;99692.03;;;15.84;52.63
11172;BME280;5642;50.830;12.082;2023-04-16T11:52:53;99679.25;;;15.75;52.56
11172;BME280;5642;50.830;12.082;2023-04-16T11:55:28;99700.88;;;15.83;52.58
11172;BME280;5642;50.830;12.082;2023-04-16T11:57:54;99687.81;;;15.80;52.69
11172;BME280;5642;50.830;12.082;2023-04-16T12:00:21;99699.72;;;15.88;52.76
11172;BME280;5642;50.830;12.082;2023-04-16T12:02:52;99702.50;;;15.85;52.55
11172;BME280;5642;50.830;12.082;2023-04-16T12:05:32;99701.03;;;15.80;52.58
11172;BME280;5642;50.830;12.082;2023-04-16T12:08:01;99709.31;;;15.72;52.83
11172;BME280;5642;50.830;12.082;2023-04-16T12:10:28;99706.16;;;15.64;52.91
11172;BME280;5642;50.830;12.082;2023-04-16T12:13:14;99708.25;;;15.57;52.83
11172;BME280;5642;50.830;12.082;2023-04-16T12:18:11;99710.88;;;15.39;53.08
11172;BME280;5642;50.830;12.082;2023-04-16T12:20:40;99715.50;;;15.34;53.05
11172;BME280;5642;50.830;12.082;2023-04-16T12:23:07;99713.91;;;15.29;53.29
11172;BME280;5642;50.830;12.082;2023-04-16T12:25:33;99710.38;;;15.31;53.32
11172;BME280;5642;50.830;12.082;2023-04-16T12:28:00;99713.13;;;15.27;53.29
11172;BME280;5642;50.830;12.082;2023-04-16T12:30:27;99722.84;;;15.27;53.29
11172;BME280;5642;50.830;12.082;2023-04-16T12:33:13;99710.78;;;15.21;53.22
11172;BME280;5642;50.830;12.082;2023-04-16T12:35:40;99713.75;;;15.14;53.36
11172;BME280;5642;50.830;12.082;2023-04-16T12:38:08;99721.84;;;15.11;53.50
11172;BME280;5642;50.830;12.082;2023-04-16T12:40:35;99709.91;;;15.02;53.32
11172;BME280;5642;50.830;12.082;2023-04-16T12:43:03;99721.44;;;15.00;53.50
11172;BME280;5642;50.830;12.082;2023-04-16T12:45:30;99725.78;;;15.01;53.56
11172;BME280;5642;50.830;12.082;2023-04-16T12:47:56;99717.03;;;15.00;53.51
11172;BME280;5642;50.830;12.082;2023-04-16T12:50:23;99717.88;;;15.01;53.47
11172;BME280;5642;50.830;12.082;2023-04-16T12:52:49;99717.13;;;14.99;53.49
11172;BME280;5642;50.830;12.082;2023-04-16T12:55:15;99713.47;;;15.01;53.33
11172;BME280;5642;50.830;12.082;2023-04-16T12:57:54;99715.97;;;15.04;53.21
11172;BME280;5642;50.830;12.082;2023-04-16T13:00:20;99726.47;;;15.06;53.31
11172;BME280;5642;50.830;12.082;2023-04-16T13:02:47;99728.38;;;15.02;53.35
11172;BME280;5642;50.830;12.082;2023-04-16T13:05:13;99726.66;;;15.01;53.42
11172;BME280;5642;50.830;12.082;2023-04-16T13:07:41;99723.50;;;14.93;53.47
11172;BME280;5642;50.830;12.082;2023-04-16T13:10:08;99727.72;;;14.97;53.40